createdAt,value
2023-05-19T00:00:16.373Z,30.290
2023-05-19T00:05:16.392Z,30.290
2023-05-19T00:10:16.428Z,30.291
2023-05-19T00:15:16.342Z,30.294
2023-05-19T00:20:16.518Z,30.293
2023-05-19T00:25:16.379Z,30.297
2023-05-19T00:30:16.420Z,30.301
2023-05-19T00:35:16.344Z,30.303
2023-05-19T00:40:16.635Z,30.305
2023-05-19T00:45:16.459Z,30.307
2023-05-19T00:50:16.441Z,30.310
2023-05-19T00:55:16.453Z,30.312
2023-05-19T01:00:16.369Z,30.315
2023-05-19T01:05:16.430Z,30.318
2023-05-19T01:10:16.540Z,30.319
2023-05-19T01:15:16.442Z,30.320
2023-05-19T01:20:16.398Z,30.321
2023-05-19T01:25:16.503Z,30.323
2023-05-19T01:30:16.453Z,30.325
2023-05-19T01:35:16.534Z,30.326
2023-05-19T01:40:16.532Z,30.332
2023-05-19T01:45:16.626Z,30.334
2023-05-19T01:50:16.572Z,30.340
2023-05-19T01:55:16.580Z,30.339
2023-05-19T02:00:16.932Z,30.339
2023-05-19T02:05:16.555Z,30.347
2023-05-19T02:10:16.601Z,30.344
2023-05-19T02:15:16.619Z,30.345
2023-05-19T02:20:16.708Z,30.345
2023-05-19T02:25:16.662Z,30.351
2023-05-19T02:30:16.761Z,30.349
2023-05-19T02:35:16.674Z,30.348
2023-05-19T02:40:16.617Z,30.348
2023-05-19T02:45:16.617Z,30.351
2023-05-19T02:50:16.651Z,30.346
2023-05-19T02:55:16.671Z,30.348
2023-05-19T03:00:16.661Z,30.352
2023-05-19T03:05:16.796Z,30.349
2023-05-19T03:10:16.746Z,30.356
2023-05-19T03:15:16.796Z,30.354
2023-05-19T03:20:16.775Z,30.353
2023-05-19T03:25:16.742Z,30.354
2023-05-19T03:30:16.925Z,30.356
2023-05-19T03:35:16.704Z,30.356
2023-05-19T03:40:16.868Z,30.356
2023-05-19T03:45:16.850Z,30.356
2023-05-19T03:50:16.716Z,30.354
2023-05-19T03:55:16.883Z,30.357
2023-05-19T04:00:15.766Z,30.357
2023-05-19T04:05:15.860Z,30.358
2023-05-19T04:10:15.811Z,30.361
2023-05-19T04:15:15.809Z,30.362
2023-05-19T04:20:15.800Z,30.364
2023-05-19T04:25:15.833Z,30.362
2023-05-19T04:30:18.363Z,30.364
2023-05-19T04:35:15.946Z,30.363
2023-05-19T04:40:15.894Z,30.363
2023-05-19T04:45:15.856Z,30.364
2023-05-19T04:50:15.940Z,30.361
2023-05-19T04:55:16.002Z,30.361
2023-05-19T05:00:15.910Z,30.361
2023-05-19T05:05:15.947Z,30.363
2023-05-19T05:10:15.954Z,30.363
2023-05-19T05:15:15.970Z,30.359
2023-05-19T05:20:15.974Z,30.362
2023-05-19T05:25:16.138Z,30.359
2023-05-19T05:30:15.901Z,30.361
2023-05-19T05:35:15.970Z,30.361
2023-05-19T05:40:15.981Z,30.360
2023-05-19T05:45:16.082Z,30.359
2023-05-19T05:50:16.004Z,30.358
2023-05-19T05:55:15.959Z,30.357
2023-05-19T06:00:16.050Z,30.361
2023-05-19T06:05:15.993Z,30.361
2023-05-19T06:10:16.034Z,30.361
2023-05-19T06:15:16.068Z,30.360
2023-05-19T06:20:16.155Z,30.361
2023-05-19T06:25:16.129Z,30.363
2023-05-19T06:30:16.093Z,30.364
2023-05-19T06:35:16.186Z,30.361
2023-05-19T06:40:16.069Z,30.363
2023-05-19T06:45:16.130Z,30.360
2023-05-19T06:50:16.237Z,30.362
2023-05-19T06:55:16.261Z,30.361
2023-05-19T07:00:18.306Z,30.359
2023-05-19T07:05:16.284Z,30.366
2023-05-19T07:10:16.459Z,30.366
2023-05-19T07:15:16.205Z,30.362
2023-05-19T07:20:16.158Z,30.364
2023-05-19T07:25:16.405Z,30.367
2023-05-19T07:30:16.205Z,30.367
2023-05-19T07:35:16.472Z,30.365
2023-05-19T07:40:16.286Z,30.366
2023-05-19T07:45:16.240Z,30.366
2023-05-19T07:50:16.297Z,30.364
2023-05-19T07:55:16.394Z,30.366
2023-05-19T08:00:16.195Z,30.368
2023-05-19T08:05:16.238Z,30.367
2023-05-19T08:10:16.453Z,30.369
2023-05-19T08:15:16.477Z,30.372
2023-05-19T08:20:16.338Z,30.369
2023-05-19T08:25:16.485Z,30.369
2023-05-19T08:30:16.370Z,30.367
2023-05-19T08:35:16.451Z,30.367
2023-05-19T08:40:16.410Z,30.368
2023-05-19T08:45:16.387Z,30.374
2023-05-19T08:50:16.428Z,30.373
2023-05-19T08:55:16.365Z,30.373
2023-05-19T09:00:16.510Z,30.375
2023-05-19T09:05:16.409Z,30.376
2023-05-19T09:10:16.523Z,30.377
2023-05-19T09:15:16.383Z,30.375
2023-05-19T09:20:16.456Z,30.377
2023-05-19T09:25:16.479Z,30.376
2023-05-19T09:30:16.450Z,30.377
2023-05-19T09:35:16.490Z,30.378
2023-05-19T09:40:16.544Z,30.379
2023-05-19T09:45:16.472Z,30.381
2023-05-19T09:50:16.473Z,30.381
2023-05-19T09:55:16.478Z,30.380
2023-05-19T10:00:17.500Z,30.383
2023-05-19T10:05:16.697Z,30.382
2023-05-19T10:10:16.799Z,30.387
2023-05-19T10:15:16.497Z,30.385
2023-05-19T10:20:16.789Z,30.389
2023-05-19T10:25:16.605Z,30.387
2023-05-19T10:30:16.880Z,30.391
2023-05-19T10:35:16.698Z,30.386
2023-05-19T10:40:16.705Z,30.389
2023-05-19T10:45:16.869Z,30.393
2023-05-19T10:50:16.645Z,30.390
2023-05-19T10:55:16.673Z,30.390
2023-05-19T11:00:16.514Z,30.394
2023-05-19T11:05:16.803Z,30.396
2023-05-19T11:10:16.622Z,30.395
2023-05-19T11:15:16.824Z,30.393
2023-05-19T11:20:16.710Z,30.395
2023-05-19T11:25:16.875Z,30.395
2023-05-19T11:30:16.858Z,30.394
2023-05-19T11:35:16.775Z,30.393
2023-05-19T11:40:16.634Z,30.395
2023-05-19T11:45:16.777Z,30.395
2023-05-19T11:50:16.852Z,30.395
2023-05-19T11:55:16.738Z,30.394
2023-05-19T12:00:16.720Z,30.393
2023-05-19T12:05:16.847Z,30.396
2023-05-19T12:10:16.760Z,30.396
2023-05-19T12:15:16.944Z,30.396
2023-05-19T12:20:16.892Z,30.398
2023-05-19T12:25:16.850Z,30.398
2023-05-19T12:30:16.815Z,30.400
2023-05-19T12:35:16.827Z,30.399
2023-05-19T12:40:16.895Z,30.397
2023-05-19T12:45:16.799Z,30.395
2023-05-19T12:50:16.869Z,30.396
2023-05-19T12:55:16.908Z,30.397
2023-05-19T13:00:17.059Z,30.397
2023-05-19T13:05:16.883Z,30.397
2023-05-19T13:10:16.889Z,30.395
2023-05-19T13:15:16.984Z,30.392
2023-05-19T13:20:16.985Z,30.395
2023-05-19T13:25:16.914Z,30.391
2023-05-19T13:30:17.003Z,30.394
2023-05-19T13:35:16.952Z,30.393
2023-05-19T13:40:16.946Z,30.395
2023-05-19T13:45:16.989Z,30.396
2023-05-19T13:50:16.987Z,30.396
2023-05-19T13:55:16.985Z,30.393
2023-05-19T14:00:16.997Z,30.392
2023-05-19T14:05:16.902Z,30.388
2023-05-19T14:10:17.153Z,30.389
2023-05-19T14:15:17.069Z,30.387
2023-05-19T14:20:17.029Z,30.389
2023-05-19T14:25:17.034Z,30.388
2023-05-19T14:30:16.994Z,30.388
2023-05-19T14:35:17.321Z,30.386
2023-05-19T14:40:17.115Z,30.384
2023-05-19T14:45:17.280Z,30.384
2023-05-19T14:50:17.042Z,30.382
2023-05-19T14:55:17.329Z,30.381
2023-05-19T15:00:17.144Z,30.383
2023-05-19T15:05:17.117Z,30.381
2023-05-19T15:10:17.198Z,30.384
2023-05-19T15:15:17.210Z,30.379
2023-05-19T15:20:17.284Z,30.378
2023-05-19T15:25:17.198Z,30.376
2023-05-19T15:30:17.225Z,30.372
2023-05-19T15:35:17.327Z,30.377
2023-05-19T15:40:17.557Z,30.374
2023-05-19T15:45:17.510Z,30.370
2023-05-19T15:50:17.164Z,30.368
2023-05-19T15:55:17.260Z,30.366
2023-05-19T16:00:17.241Z,30.362
2023-05-19T16:05:17.322Z,30.359
2023-05-19T16:10:17.277Z,30.359
2023-05-19T16:15:17.273Z,30.360
2023-05-19T16:20:17.333Z,30.358
2023-05-19T16:25:17.369Z,30.357
2023-05-19T16:30:17.254Z,30.355
2023-05-19T16:35:17.312Z,30.350
2023-05-19T16:40:17.275Z,30.351
2023-05-19T16:45:17.311Z,30.344
2023-05-19T16:50:17.370Z,30.344
2023-05-19T16:55:17.315Z,30.337
2023-05-19T17:00:17.329Z,30.337
2023-05-19T17:05:17.594Z,30.336
2023-05-19T17:10:17.334Z,30.334
2023-05-19T17:15:17.502Z,30.332
2023-05-19T17:20:17.351Z,30.330
2023-05-19T17:25:15.381Z,30.330
2023-05-19T17:30:15.648Z,30.324
2023-05-19T17:35:15.496Z,30.324
2023-05-19T17:40:15.537Z,30.321
2023-05-19T17:45:15.393Z,30.318
2023-05-19T17:50:15.486Z,30.317
2023-05-19T17:55:15.493Z,30.314
2023-05-19T18:00:15.632Z,30.311
2023-05-19T18:05:15.582Z,30.309
2023-05-19T18:10:15.842Z,30.305
2023-05-19T18:15:15.631Z,30.303
2023-05-19T18:20:15.765Z,30.304
2023-05-19T18:25:15.504Z,30.300
2023-05-19T18:30:15.541Z,30.300
2023-05-19T18:35:15.554Z,30.299
2023-05-19T18:40:15.541Z,30.293
2023-05-19T18:45:15.680Z,30.289
2023-05-19T18:50:15.600Z,30.289
2023-05-19T18:55:15.590Z,30.290
2023-05-19T19:00:15.730Z,30.286
2023-05-19T19:05:15.688Z,30.286
2023-05-19T19:10:15.595Z,30.285
2023-05-19T19:15:15.586Z,30.282
2023-05-19T19:20:15.611Z,30.280
2023-05-19T19:25:15.704Z,30.282
2023-05-19T19:30:15.618Z,30.281
2023-05-19T19:35:15.798Z,30.279
2023-05-19T19:40:15.842Z,30.280
2023-05-19T19:45:16.009Z,30.273
2023-05-19T19:50:15.699Z,30.272
2023-05-19T19:55:15.779Z,30.269
2023-05-19T20:00:15.739Z,30.268
2023-05-19T20:05:15.777Z,30.266
2023-05-19T20:10:15.727Z,30.268
2023-05-19T20:15:15.695Z,30.266
2023-05-19T20:20:15.743Z,30.267
2023-05-19T20:25:16.001Z,30.266
2023-05-19T20:30:15.744Z,30.266
2023-05-19T20:35:15.895Z,30.266
2023-05-19T20:40:15.851Z,30.267
2023-05-19T20:45:15.839Z,30.266
2023-05-19T20:50:15.902Z,30.264
2023-05-19T20:55:15.822Z,30.265
2023-05-19T21:00:15.893Z,30.263
2023-05-19T21:05:16.005Z,30.261
2023-05-19T21:10:15.960Z,30.264
2023-05-19T21:15:15.866Z,30.267
2023-05-19T21:20:16.110Z,30.264
2023-05-19T21:25:15.873Z,30.264
2023-05-19T21:30:15.968Z,30.263
2023-05-19T21:35:16.063Z,30.264
2023-05-19T21:40:16.005Z,30.260
2023-05-19T21:45:15.964Z,30.263
2023-05-19T21:50:15.961Z,30.262
2023-05-19T21:55:16.002Z,30.266
2023-05-19T22:00:16.194Z,30.267
2023-05-19T22:05:16.022Z,30.267
2023-05-19T22:10:16.256Z,30.265
2023-05-19T22:15:16.142Z,30.264
2023-05-19T22:20:15.978Z,30.266
2023-05-19T22:25:15.973Z,30.265
2023-05-19T22:30:16.060Z,30.266
2023-05-19T22:35:16.053Z,30.265
2023-05-19T22:40:15.988Z,30.266
2023-05-19T22:45:15.981Z,30.267
2023-05-19T22:50:16.258Z,30.268
2023-05-19T22:55:16.324Z,30.270
2023-05-19T23:00:16.119Z,30.270
2023-05-19T23:05:16.557Z,30.268
2023-05-19T23:10:16.195Z,30.271
2023-05-19T23:15:16.056Z,30.268
2023-05-19T23:20:16.149Z,30.270
2023-05-19T23:25:16.220Z,30.271
2023-05-19T23:30:16.116Z,30.270
2023-05-19T23:35:16.294Z,30.269
2023-05-19T23:40:16.204Z,30.270
2023-05-19T23:45:16.173Z,30.276
2023-05-19T23:50:16.259Z,30.278
2023-05-19T23:55:16.181Z,30.278
